Flight Track Log - Related Links

Times and Time Zones

All times are in EDT time to prevent confusion due to time zone crossing. See the N627BT flight status page for this flight to view local times or setup timezone preferences in your user account.

Time Position Orientation Groundspeed Altitude Reporting Facility
EDT Latitude Longitude Course Direction KTS MPH feet Rate Location/Type
Fri 10:52:57 AM 26.7925 -81.8594 354° North 129 148 3,100  Level Miami Center
Fri 10:53:00 AM 26.8240 -81.8667 North  Level FlightAware Approximate
Fri 10:53:57 AM 26.8233 -81.8703 343° North 124 143 3,600  Level Miami Center
Fri 10:54:00 AM 26.8643 -81.8667 North  Level FlightAware Approximate
Fri 10:54:57 AM 26.8583 -81.8833 342° North 124 143 4,000  Level Miami Center
Fri 10:55:00 AM 26.9045 -81.8667 North  Level FlightAware Approximate
Fri 10:55:57 AM 26.8892 -81.8964 339° North 129 148 4,400  Level Miami Center
Fri 10:56:00 AM 26.9447 -81.8667 North  Level FlightAware Approximate
Fri 10:56:57 AM 26.9219 -81.9164 331° Northwest 129 148 4,800  Level Miami Center
Fri 10:57:00 AM 26.9847 -81.8705 354° North  Level FlightAware Approximate
Fri 10:57:57 AM 26.9547 -81.9317 337° Northwest 141 162 5,100  Level Miami Center
Fri 10:58:00 AM 27.0247 -81.8750 354° North  Level FlightAware Approximate
Fri 10:58:57 AM 26.9900 -81.9378 351° North 141 162 5,400  Level Miami Center
Fri 10:59:57 AM 27.0336 -81.9422 355° North 146 168 5,800 350 Climbing Miami Center
Fri 11:00:57 AM 27.0711 -81.9461 355° North 141 162 6,100 350 Climbing Miami Center
Fri 11:01:57 AM 27.1108 -81.9478 358° North 141 162 6,500 450 Climbing Miami Center
Fri 11:02:57 AM 27.1503 -81.9519 355° North 141 162 7,000 450 Climbing Miami Center
Fri 11:03:57 AM 27.1861 -81.9442 11° North 141 162 7,400 400 Climbing Miami Center
Fri 11:04:57 AM 27.2261 -81.9342 13° North 141 162 7,800 300 Climbing Miami Center
Fri 11:05:57 AM 27.2661 -81.9219 15° North 141 162 8,000 100 Climbing Miami Center
Fri 11:06:57 AM 27.3083 -81.9097 14° North 146 168 8,000 100 Level Miami Center
Fri 11:07:57 AM 27.3525 -81.9000 11° North 151 174 8,200 300 Climbing Miami Center
Fri 11:08:57 AM 27.3942 -81.8972 North 151 174 8,600 400 Climbing Miami Center
Fri 11:09:57 AM 27.4344 -81.8850 15° North 151 174 9,000 200 Climbing Miami Center
Fri 11:10:57 AM 27.4764 -81.8750 12° North 146 168 9,000  Level Miami Center
Fri 11:11:57 AM 27.5186 -81.8628 14° North 146 168 9,000  Level Miami Center
Fri 11:12:57 AM 27.5550 -81.8342 35° Northeast 146 168 9,000  Level Miami Center
Fri 11:13:57 AM 27.5936 -81.8100 29° Northeast 157 181 9,000  Level Miami Center
Fri 11:14:57 AM 27.6297 -81.7858 31° Northeast 157 181 9,000  Level Miami Center
Fri 11:15:57 AM 27.6681 -81.7639 27° Northeast 162 186 9,000  Level Miami Center
Fri 11:16:57 AM 27.7203 -81.7592 North 157 181 9,000  Level Miami Center
Fri 11:19:18 AM 27.8333 -81.7500 North 161 185 9,000  Level Orlando TRACON
Fri 11:20:18 AM 27.8667 -81.7500 360° North 163 188 9,000  Level Orlando TRACON
Fri 11:21:18 AM 27.9167 -81.7500 360° North 162 186 9,000  Level Orlando TRACON
Fri 11:22:19 AM 27.9500 -81.7167 41° Northeast 168 193 9,000  Level Orlando TRACON
Fri 11:23:19 AM 28.0000 -81.7000 16° North 164 189 9,000  Level Orlando TRACON
Fri 11:24:19 AM 28.0333 -81.7000 360° North 161 185 9,000  Level Orlando TRACON
Fri 11:25:19 AM 28.0833 -81.6833 16° North 161 185 9,000  Level Orlando TRACON
Fri 11:26:19 AM 28.1333 -81.6833 360° North 161 185 9,000  Level Orlando TRACON
Fri 11:27:19 AM 28.1667 -81.6833 360° North 161 185 9,000  Level Orlando TRACON
Fri 11:28:20 AM 28.2167 -81.6833 360° North 162 186 9,000  Level Orlando TRACON
Fri 11:29:20 AM 28.2667 -81.6833 360° North 164 189 9,000  Level Orlando TRACON
Fri 11:30:20 AM 28.3167 -81.6667 16° North 163 188 9,000  Level Orlando TRACON
Fri 11:31:20 AM 28.3500 -81.6667 360° North 164 189 9,000  Level Orlando TRACON
Fri 11:32:20 AM 28.4000 -81.6667 360° North 163 188 9,000  Level Orlando TRACON
Fri 11:33:20 AM 28.4500 -81.6500 16° North 163 188 9,000  Level Orlando TRACON
Fri 11:34:21 AM 28.5000 -81.6500 360° North 162 186 9,000  Level Orlando TRACON
Fri 11:35:21 AM 28.5333 -81.6500 360° North 162 186 9,000  Level Orlando TRACON
Fri 11:36:21 AM 28.5833 -81.6500 360° North 161 185 9,000  Level Orlando TRACON
Fri 11:37:21 AM 28.6333 -81.6333 16° North 163 188 9,000  Level Orlando TRACON
Fri 11:38:22 AM 28.6667 -81.6333 360° North 161 185 9,000  Level Orlando TRACON
Fri 11:39:22 AM 28.7167 -81.6333 360° North 161 185 9,000  Level Orlando TRACON
Fri 11:41:46 AM 28.8219 -81.6319 North 163 188 9,000  Level Jacksonville Center
Fri 11:42:47 AM 28.8700 -81.6264 North 162 186 9,000  Level Jacksonville Center
Fri 11:43:48 AM 28.9158 -81.6211 North 161 185 9,000  Level Jacksonville Center
Fri 11:44:43 AM 28.9575 -81.6231 358° North 161 185 9,000  Level Jacksonville Center
Fri 11:45:50 AM 29.0056 -81.6178 North 159 183 9,000  Level Jacksonville Center
Fri 11:46:45 AM 29.0472 -81.6122 North 161 185 9,000  Level Jacksonville Center
Fri 11:47:46 AM 29.0931 -81.6094 North 161 185 9,000 -98 Level Jacksonville Center
Fri 11:48:47 AM 29.1389 -81.6042 North 159 183 8,800 -224 Descending Jacksonville Center
Fri 11:49:33 AM 29.1703 -81.5989 North 160 184 8,600 -316 Descending Jacksonville Center
Fri 11:50:22 AM 29.2097 -81.5936 North 170 196 8,300 -439 Descending Jacksonville Center
Fri 11:50:55 AM 29.2347 -81.5908 North 167 192 8,000 -452 Descending Jacksonville Center
Fri 11:51:55 AM 29.2828 -81.5878 North 165 190 7,600 -393 Descending Jacksonville Center
Fri 11:52:57 AM 29.3267 -81.5850 North 158 182 7,200 -379 Descending Jacksonville Center
Fri 11:53:30 AM 29.3494 -81.5822 North 154 177 7,000 -128 Descending Jacksonville Center
Fri 11:54:31 AM 29.3914 -81.5792 North 149 171 7,000 49 Level Jacksonville Center
Fri 11:55:33 AM 29.4350 -81.5786 North 155 178 7,100  Climbing Jacksonville Center
Fri 11:56:40 AM 29.4872 -81.5733 North 161 185 7,000 -47 Descending Jacksonville Center
Fri 11:57:41 AM 29.5311 -81.5703 North 159 183 7,000 49 Level Jacksonville Center
Fri 11:58:42 AM 29.5750 -81.5697 North 158 182 7,100  Climbing Jacksonville Center
Fri 11:59:43 AM 29.6167 -81.5667 North 158 182 7,000  Descending Jacksonville Center
Fri 12:00:38 PM 29.6583 -81.5614 North 158 182 7,100 44 Climbing Jacksonville Center
Fri 12:01:59 PM 29.7208 -81.5558 North 162 186 7,100  Level Jacksonville Center
Fri 12:03:12 PM 29.7750 -81.5525 North 162 186 7,100 -45 Level Jacksonville Center
Fri 12:04:13 PM 29.8167 -81.5425 12° North 155 178 7,000 -148 Descending Jacksonville Center
Fri 12:05:14 PM 29.8647 -81.5322 11° North 163 188 6,800 -295 Descending Jacksonville Center
Fri 12:06:15 PM 29.9083 -81.5244 North 164 189 6,400 -443 Descending Jacksonville Center
Fri 12:07:16 PM 29.9544 -81.5236 North 161 185 5,900 -545 Descending Jacksonville Center
Fri 12:08:05 PM 29.9919 -81.5231 North 161 185 5,400 -491 Descending Jacksonville Center
Fri 12:09:06 PM 30.0358 -81.5203 North 158 182 5,000 -393 Descending Jacksonville Center
Fri 12:10:07 PM 30.0775 -81.5194 North 152 175 4,600 -393 Descending Jacksonville Center
Fri 12:11:08 PM 30.1192 -81.5189 North 149 171 4,200 -492 Descending Jacksonville Center
Fri 12:12:09 PM 30.1631 -81.5086 11° North 154 177 3,600 -541 Descending Jacksonville Center
Fri 12:13:10 PM 30.2044 -81.4864 25° Northeast 156 180 3,100 -595 Descending Jacksonville Center
Fri 12:14:10 PM 30.2442 -81.4764 12° North 153 176 2,400 -942 Descending Jacksonville Center
Fri 12:15:11 PM 30.2881 -81.4900 345° North 163 188 1,200 -689 Descending Jacksonville Center
Fri 12:16:12 PM 30.3256 -81.4800 13° North 140 161 1,000 -246 Descending Jacksonville Center
Fri 12:17:13 PM 30.3567 -81.4747 North 122 140 700 -344 Descending Jacksonville Center
Fri 12:18:14 PM 30.3486 -81.4964 247° West 57 66 300 -393 Descending Jacksonville Center

Login

Don't have an account? Register now (free) for customized features, flight alerts, and more!